Aeroporto :
LOGIN :

Iscrizione | Disclaimer

   EN    FR    IT 

 










Sommario :    VFR   VFR Marginale   IFR   IFR Intensivo   IFR Molto Intensivo
Visibilità : 
Base nubi : 
>= 8 km
>= 3000ft
5 / 8 km
1000 / 3000 ft
1500m / 5 km
500 / 1000 ft
800 / 1500m
200 / 500 ft
< 800m
< 200 ft
Simboli :   Temporali  Nebbia  Neve Forte  Precipitazioni Forti  Vento > 20 kt
SIGMETs :   Varie  Temporali  Ghiacco  Turbolenza  Onda orograficha  Ceneri Vulcaniche






- Altitudine del aeroporto : 52 ft
- Codice IATA : IOM


EGNS - Isle of Man

ULTIMO METAR :
  • 250620Z 27020KT 9999 FEW017 BKN022 04/01 Q0997 NOSIG

METARs OBSOLETI :
  • 250550Z 27019KT 9999 FEW017 BKN022 04/01 Q0997 NOSIG
  • 250520Z 27021KT 9999 SCT017 BKN020 04/01 Q0997 RESHRA NOSIG
  • 250450Z 27016KT 250V360 9999 -SHRA SCT012 BKN017 04/02 Q0997
  • 250350Z 25020G30KT 9999 SCT025 SCT035 05/02 Q0998

TAF TAF EGNS
Valido dal 25 a 06 ore il 25 a 15 ore UTC


250500Z 2506/2515 27018KT 9999 FEW020
TEMPO 2506/2515 27020G30KT



MetMap, La meteo Aeronautica in un colpo d'occhio ! - Copyright ORBIFLY Dicembre 2007 - Disclaimer

ORBIFLY MET'MAP TEAM :

Programmazione e sviluppo : Alexandra Zaïnal
Concezione : Baudouin d'Aumeries
Aiuto per la programmazione : Marc-Olivier Méhu
Supporto tecnico e logistico : Manuel Goepfert
Aiuto per la traduzione : Arnaldo La Scala

Contatto : metmap@orbifly.com




FONTI E CREDITI :

   NOAA